Time;durP1;ratioP1;P1;durP2;ratioP2;P2;SDS_P1;SDS_P2;PMS_P1;PMS_P2;Temp;Humidity;BMP_temperature;BMP_pressure;BME280_temperature;BME280_humidity;BME280_pressure;Samples;Min_cycle;Max_cycle;Signal;HPM_P1;HPM_P2
2023/10/17 00:02:50;;;;;;;4.63;3.50;;;12.50;88.60;;;;;;6191329;23;20092;-93
2023/10/17 00:05:15;;;;;;;4.40;3.45;;;12.40;88.50;;;;;;6166096;23;20729;-93
2023/10/17 00:07:45;;;;;;;5.22;3.67;;;12.30;88.60;;;;;;6165311;23;20044;-93
2023/10/17 00:10:20;;;;;;;3.40;2.90;;;12.20;88.90;;;;;;6166353;23;20116;-93
2023/10/17 00:12:50;;;;;;;7.78;4.38;;;12.10;88.90;;;;;;6165425;23;20013;-93
2023/10/17 00:15:27;;;;;;;5.47;4.30;;;12.20;89.00;;;;;;6166252;23;20359;-93
2023/10/17 00:18:02;;;;;;;7.57;4.15;;;12.20;88.90;;;;;;6165780;23;20017;-93
2023/10/17 00:20:32;;;;;;;7.68;4.28;;;12.20;88.90;;;;;;6165659;23;20023;-94
2023/10/17 00:22:58;;;;;;;6.82;5.05;;;12.20;88.90;;;;;;6165630;23;20075;-94
2023/10/17 00:25:37;;;;;;;6.97;5.00;;;12.30;88.90;;;;;;6165702;23;20028;-93
2023/10/17 00:28:03;;;;;;;6.07;4.75;;;12.20;89.00;;;;;;6165828;23;20017;-93
2023/10/17 00:30:30;;;;;;;6.43;3.58;;;12.30;88.70;;;;;;6190514;23;20023;-92
2023/10/17 00:32:55;;;;;;;3.03;2.60;;;12.20;88.50;;;;;;6165095;23;20013;-93
2023/10/17 00:35:50;;;;;;;2.10;1.60;;;12.20;88.50;;;;;;6190952;23;20027;-93
2023/10/17 00:38:35;;;;;;;2.40;1.38;;;12.00;88.60;;;;;;6165844;23;20478;-93
2023/10/17 00:41:04;;;;;;;3.75;1.98;;;12.00;88.40;;;;;;6165261;23;20935;-92
2023/10/17 00:43:30;;;;;;;2.55;2.35;;;12.00;88.10;;;;;;6165003;23;20095;-93
2023/10/17 00:45:56;;;;;;;2.10;1.90;;;11.90;88.10;;;;;;6164849;23;20013;-92
2023/10/17 00:48:23;;;;;;;2.13;1.80;;;11.90;88.00;;;;;;6189675;23;20008;-93
2023/10/17 00:50:56;;;;;;;2.50;1.95;;;11.80;88.10;;;;;;6165248;23;20453;-93
2023/10/17 00:53:27;;;;;;;2.90;2.33;;;11.80;88.10;;;;;;6164826;23;20016;-92
2023/10/17 00:55:56;;;;;;;9.93;4.30;;;11.90;88.20;;;;;;6165546;23;20016;-93
2023/10/17 00:58:23;;;;;;;5.43;3.25;;;12.00;88.00;;;;;;6165662;23;20048;-92
2023/10/17 01:00:53;;;;;;;6.05;3.42;;;12.00;88.00;;;;;;6165473;23;20123;-93
2023/10/17 01:03:44;;;;;;;7.32;3.97;;;12.00;88.10;;;;;;6165581;23;20028;-93
2023/10/17 01:06:23;;;;;;;4.10;3.20;;;11.80;88.10;;;;;;6165692;23;20021;-93
2023/10/17 01:08:49;;;;;;;6.15;4.18;;;11.90;88.00;;;;;;6165476;23;20060;-92
2023/10/17 01:11:26;;;;;;;4.22;3.50;;;11.90;87.90;;;;;;6165377;23;20024;-93
2023/10/17 01:13:55;;;;;;;4.47;2.88;;;11.80;87.90;;;;;;6165007;23;20023;-92
2023/10/17 01:16:39;;;;;;;2.95;2.30;;;11.80;88.00;;;;;;6165720;23;20066;-93
2023/10/17 01:19:07;;;;;;;1.90;1.65;;;11.60;88.20;;;;;;6165098;23;20024;-92
2023/10/17 01:21:32;;;;;;;2.00;1.90;;;11.70;88.10;;;;;;6165666;23;20020;-93
2023/10/17 01:24:03;;;;;;;2.10;2.00;;;11.80;88.20;;;;;;6165721;23;20013;-93
2023/10/17 01:26:28;;;;;;;2.60;1.88;;;11.70;88.10;;;;;;6166160;23;20013;-93
2023/10/17 01:28:56;;;;;;;1.98;1.88;;;11.80;88.20;;;;;;6167338;23;20012;-93
2023/10/17 01:31:22;;;;;;;2.50;2.30;;;11.80;88.50;;;;;;6166523;23;20024;-93
2023/10/17 01:33:52;;;;;;;2.33;2.13;;;11.80;88.60;;;;;;6167031;23;20016;-93
2023/10/17 01:36:19;;;;;;;2.85;2.30;;;11.90;88.70;;;;;;6167086;23;20036;-93
2023/10/17 01:38:46;;;;;;;3.67;2.25;;;11.90;88.60;;;;;;6166735;23;20020;-92
2023/10/17 01:41:12;;;;;;;2.83;2.50;;;11.90;88.60;;;;;;6167740;23;20019;-93
2023/10/17 01:43:42;;;;;;;2.40;2.20;;;11.90;88.60;;;;;;6166939;23;20127;-93
2023/10/17 01:46:14;;;;;;;2.65;2.22;;;11.90;88.80;;;;;;6167010;23;20016;-93
2023/10/17 01:48:46;;;;;;;2.90;2.60;;;11.90;88.90;;;;;;6167354;23;20024;-93
2023/10/17 01:51:14;;;;;;;5.18;3.35;;;11.90;89.00;;;;;;6166876;23;20020;-93
2023/10/17 01:53:51;;;;;;;7.45;5.85;;;11.90;88.90;;;;;;6191562;23;20019;-94
2023/10/17 01:56:25;;;;;;;6.50;5.57;;;11.90;89.20;;;;;;6167308;23;20448;-93
2023/10/17 01:58:51;;;;;;;6.57;5.47;;;11.90;89.10;;;;;;6167398;23;20020;-93
2023/10/17 02:01:25;;;;;;;8.38;5.63;;;11.90;89.10;;;;;;6166808;23;20031;-94
2023/10/17 02:04:03;;;;;;;7.40;6.03;;;11.80;89.10;;;;;;6166476;23;20048;-93
2023/10/17 02:06:35;;;;;;;7.43;5.90;;;11.80;89.10;;;;;;6167000;23;20103;-95
2023/10/17 02:09:05;;;;;;;7.95;6.32;;;11.80;89.10;;;;;;6166787;23;20012;-93
2023/10/17 02:11:40;;;;;;;8.77;7.32;;;11.80;89.20;;;;;;6166864;23;20052;-93
2023/10/17 02:14:15;;;;;;;8.13;6.85;;;11.80;89.20;;;;;;6166780;23;20013;-93
2023/10/17 02:16:40;;;;;;;9.40;7.20;;;11.70;89.30;;;;;;6166722;23;20079;-93
2023/10/17 02:19:08;;;;;;;8.38;7.25;;;11.80;89.30;;;;;;6167525;23;20370;-93
2023/10/17 02:21:43;;;;;;;9.77;6.85;;;11.70;89.20;;;;;;6166510;23;20066;-93
2023/10/17 02:24:09;;;;;;;6.38;5.70;;;11.80;89.10;;;;;;6166590;23;20016;-93
2023/10/17 02:26:43;;;;;;;6.20;5.40;;;11.60;89.20;;;;;;6167064;23;20020;-92
2023/10/17 02:29:23;;;;;;;9.05;7.15;;;11.60;89.40;;;;;;6166655;23;20016;-93
2023/10/17 02:31:52;;;;;;;8.85;7.15;;;11.50;89.50;;;;;;6166769;23;20032;-93
2023/10/17 02:34:23;;;;;;;8.30;7.25;;;11.60;89.10;;;;;;6166513;23;20020;-93
2023/10/17 02:37:11;;;;;;;11.10;7.85;;;11.50;89.30;;;;;;6166627;23;20023;-93
2023/10/17 02:39:50;;;;;;;9.35;7.53;;;11.40;89.50;;;;;;6166572;23;20037;-93
2023/10/17 02:42:16;;;;;;;9.65;7.45;;;11.50;89.40;;;;;;6166598;23;20100;-93
2023/10/17 02:44:57;;;;;;;8.00;7.07;;;11.60;89.20;;;;;;6166723;23;20014;-93
2023/10/17 02:47:24;;;;;;;8.63;7.10;;;11.50;89.30;;;;;;6166603;23;20047;-93
2023/10/17 02:53:05;;;;;;;9.63;7.95;;;11.40;89.50;;;;;;6191575;23;20020;-93
2023/10/17 02:55:32;;;;;;;9.35;7.82;;;11.50;89.30;;;;;;6166929;23;20024;-92
2023/10/17 02:58:01;;;;;;;7.97;7.18;;;11.60;89.30;;;;;;6166966;23;20095;-93
2023/10/17 03:00:33;;;;;;;7.30;6.55;;;11.70;89.40;;;;;;6166101;23;20024;-92
2023/10/17 03:03:12;;;;;;;8.30;6.80;;;11.70;89.30;;;;;;6166890;23;20028;-92
2023/10/17 03:05:43;;;;;;;9.13;7.05;;;11.80;89.20;;;;;;6166357;23;20352;-92
2023/10/17 03:08:30;;;;;;;8.63;6.72;;;11.70;89.20;;;;;;6166100;23;20095;-93
2023/10/17 03:11:00;;;;;;;10.18;7.75;;;11.60;89.40;;;;;;6166742;23;20020;-93
2023/10/17 03:13:39;;;;;;;9.25;8.10;;;11.80;89.30;;;;;;6166191;23;20027;-93
2023/10/17 03:16:23;;;;;;;10.57;7.75;;;11.90;89.20;;;;;;6166054;23;20017;-93
2023/10/17 03:18:50;;;;;;;10.98;7.60;;;11.90;89.20;;;;;;6191351;23;20024;-92
2023/10/17 03:21:19;;;;;;;10.57;7.80;;;11.90;89.00;;;;;;6166463;23;20028;-93
2023/10/17 03:23:48;;;;;;;9.70;7.65;;;11.90;89.20;;;;;;6166528;23;20024;-92
2023/10/17 03:26:22;;;;;;;9.55;8.30;;;11.90;89.30;;;;;;6166801;23;20066;-92
2023/10/17 03:28:50;;;;;;;7.90;6.65;;;11.90;89.50;;;;;;6166514;23;20102;-93
2023/10/17 03:31:20;;;;;;;10.73;8.57;;;12.00;89.40;;;;;;6166807;23;20017;-93
2023/10/17 03:33:51;;;;;;;11.70;9.13;;;12.00;89.60;;;;;;6188695;23;20027;-92
2023/10/17 03:39:21;;;;;;;10.52;8.90;;;12.00;89.60;;;;;;6191980;23;20016;-93
2023/10/17 03:41:56;;;;;;;9.70;8.50;;;12.00;89.50;;;;;;6166429;23;20020;-93
2023/10/17 03:44:29;;;;;;;10.90;9.00;;;12.10;89.60;;;;;;6165921;23;20020;-93
2023/10/17 03:46:59;;;;;;;13.77;9.05;;;12.20;89.60;;;;;;6191177;23;20020;-93
2023/10/17 03:49:36;;;;;;;10.13;8.98;;;12.20;89.60;;;;;;6165917;23;20020;-92
2023/10/17 03:52:04;;;;;;;11.30;8.65;;;12.20;89.50;;;;;;6165917;23;20075;-93
2023/10/17 03:54:44;;;;;;;12.57;9.43;;;12.20;89.40;;;;;;6166031;23;20016;-93
2023/10/17 03:57:15;;;;;;;10.13;8.77;;;12.20;89.60;;;;;;6165564;23;20548;-93
2023/10/17 03:59:51;;;;;;;10.07;8.88;;;12.20;89.60;;;;;;6165502;23;20016;-93
2023/10/17 04:02:19;;;;;;;10.95;9.65;;;12.20;89.70;;;;;;6165739;23;20017;-93
2023/10/17 04:04:54;;;;;;;11.43;9.50;;;12.20;89.60;;;;;;6165286;23;20027;-93
2023/10/17 04:07:22;;;;;;;9.95;8.95;;;12.30;89.60;;;;;;6165604;23;20016;-93
2023/10/17 04:10:18;;;;;;;10.80;9.15;;;12.30;89.70;;;;;;6165062;23;20031;-93
2023/10/17 04:15:43;;;;;;;9.60;8.23;;;12.20;89.80;;;;;;6122011;23;20128;-93
2023/10/17 04:18:10;;;;;;;10.82;9.35;;;12.10;89.90;;;;;;6164800;23;20444;-93
2023/10/17 04:20:37;;;;;;;11.07;9.23;;;12.20;89.80;;;;;;6164998;23;20051;-92
2023/10/17 04:23:05;;;;;;;11.13;9.43;;;12.20;89.80;;;;;;6165527;23;20017;-93
2023/10/17 04:25:34;;;;;;;11.30;7.90;;;12.20;89.80;;;;;;6165232;23;20021;-93
2023/10/17 04:28:01;;;;;;;12.85;9.38;;;12.20;89.90;;;;;;6164994;23;20052;-92
2023/10/17 04:30:34;;;;;;;11.80;9.15;;;12.30;90.00;;;;;;6165526;23;20020;-93
2023/10/17 04:33:22;;;;;;;10.48;8.50;;;12.30;89.90;;;;;;6165374;23;20503;-93
2023/10/17 04:35:59;;;;;;;10.95;8.38;;;12.10;90.00;;;;;;6190325;23;20024;-93
2023/10/17 04:38:27;;;;;;;10.25;9.15;;;12.20;89.90;;;;;;6165226;23;20019;-92
2023/10/17 04:41:25;;;;;;;11.15;8.88;;;12.20;89.90;;;;;;6164825;23;20362;-94
2023/10/17 04:44:15;;;;;;;8.38;7.55;;;12.10;89.90;;;;;;6165359;23;20024;-93
2023/10/17 04:47:30;;;;;;;9.20;6.88;;;12.20;89.70;;;;;;6165128;23;20017;-93
2023/10/17 04:49:36;;;;;;;8.30;6.82;;;12.10;89.70;;;;;;6181847;23;20368;-93
2023/10/17 04:52:08;;;;;;;7.72;6.95;;;12.20;89.70;;;;;;6164800;23;20079;-92
2023/10/17 04:57:15;;;;;;;9.43;7.50;;;12.20;89.70;;;;;;6189224;23;20017;-92
2023/10/17 04:59:51;;;;;;;9.05;7.95;;;12.10;89.60;;;;;;6153276;23;20016;-92
2023/10/17 06:16:53;;;;;;;11.32;8.82;;;12.40;89.90;;;;;;6189829;23;20028;-94
2023/10/17 06:19:21;;;;;;;9.88;7.22;;;12.40;89.90;;;;;;6165956;23;20016;-95
2023/10/17 06:30:28;;;;;;;8.05;6.80;;;12.40;89.80;;;;;;6194021;23;20017;-96
2023/10/17 06:33:05;;;;;;;9.57;8.30;;;12.50;89.80;;;;;;6169300;23;20029;-96
2023/10/17 06:35:37;;;;;;;10.77;8.73;;;12.40;89.90;;;;;;6169301;23;20027;-96
2023/10/17 06:38:04;;;;;;;9.73;8.20;;;12.60;89.80;;;;;;6168061;23;20020;-95
2023/10/17 06:40:32;;;;;;;9.05;7.65;;;12.60;89.70;;;;;;6167574;23;20027;-95
2023/10/17 06:42:59;;;;;;;10.70;7.80;;;12.70;89.80;;;;;;6168024;23;20043;-96
2023/10/17 06:45:55;;;;;;;9.85;8.40;;;12.60;89.80;;;;;;6168284;23;20012;-95
2023/10/17 06:48:35;;;;;;;11.35;9.45;;;12.50;90.00;;;;;;6167009;23;20023;-95
2023/10/17 06:51:35;;;;;;;11.02;9.10;;;12.70;89.80;;;;;;6170153;23;20021;-96
2023/10/17 06:54:07;;;;;;;9.50;8.55;;;12.60;90.00;;;;;;6171235;23;20016;-96
2023/10/17 06:56:38;;;;;;;10.50;7.80;;;12.80;89.60;;;;;;6176833;23;20064;-95
2023/10/17 06:59:14;;;;;;;9.77;8.20;;;12.90;89.70;;;;;;6190721;23;20044;-92
2023/10/17 07:01:40;;;;;;;10.23;8.32;;;12.90;89.70;;;;;;6176843;23;20027;-93
2023/10/17 07:04:11;;;;;;;10.45;7.97;;;13.00;89.80;;;;;;6166989;23;20052;-93
2023/10/17 07:06:38;;;;;;;9.30;7.38;;;12.90;89.90;;;;;;6165970;23;20028;-93
2023/10/17 07:09:06;;;;;;;10.45;7.53;;;13.10;89.80;;;;;;6166705;23;20017;-93
2023/10/17 07:11:35;;;;;;;7.13;6.43;;;13.10;89.80;;;;;;6166072;23;20016;-92
2023/10/17 07:16:42;;;;;;;9.40;7.15;;;13.20;89.70;;;;;;6191236;23;20027;-92
2023/10/17 07:19:46;;;;;;;9.30;7.18;;;13.20;89.80;;;;;;6166606;23;20021;-93
2023/10/17 07:24:36;;;;;;;10.48;7.82;;;13.40;89.40;;;;;;6191074;23;20024;-93
2023/10/17 07:27:18;;;;;;;13.70;8.40;;;13.40;89.40;;;;;;6167010;23;20017;-93
2023/10/17 07:29:45;;;;;;;8.82;7.88;;;13.40;89.30;;;;;;6166313;23;20017;-93
2023/10/17 07:32:16;;;;;;;12.20;8.73;;;13.60;89.20;;;;;;6165854;23;20115;-93
2023/10/17 07:34:43;;;;;;;12.35;8.77;;;13.60;89.20;;;;;;6166477;23;20099;-92
2023/10/17 07:37:33;;;;;;;14.15;9.18;;;13.60;89.30;;;;;;6167003;23;20337;-93
2023/10/17 07:42:42;;;;;;;12.88;8.98;;;13.70;89.20;;;;;;6189912;23;20072;-93
2023/10/17 07:45:14;;;;;;;12.85;9.85;;;13.70;89.20;;;;;;6165532;23;20009;-93
2023/10/17 07:47:51;;;;;;;11.50;8.35;;;13.70;89.40;;;;;;6165420;23;20021;-93
2023/10/17 07:50:17;;;;;;;9.93;8.30;;;13.80;89.40;;;;;;6165371;23;20021;-93
2023/10/17 07:52:50;;;;;;;11.32;8.20;;;13.80;89.20;;;;;;6165604;23;20040;-93
2023/10/17 07:58:17;;;;;;;8.90;7.53;;;13.90;89.40;;;;;;6190237;23;20021;-94
2023/10/17 08:00:48;;;;;;;11.00;8.35;;;13.80;89.30;;;;;;6166178;23;20076;-94
2023/10/17 08:03:18;;;;;;;9.52;8.18;;;14.00;89.00;;;;;;6162667;23;20012;-88
2023/10/17 08:06:05;;;;;;;13.18;8.60;;;14.00;89.00;;;;;;6185850;23;20020;-88
2023/10/17 08:08:42;;;;;;;8.98;7.60;;;14.00;89.00;;;;;;6185543;23;20508;-88
2023/10/17 08:11:24;;;;;;;13.43;8.90;;;14.00;88.70;;;;;;6185845;23;20028;-88
2023/10/17 08:13:50;;;;;;;13.63;8.70;;;14.10;88.60;;;;;;6185757;23;20021;-88
2023/10/17 08:16:26;;;;;;;10.30;7.53;;;14.10;88.40;;;;;;6160945;23;20102;-88
2023/10/17 08:18:58;;;;;;;8.85;7.93;;;14.10;88.20;;;;;;6161057;23;20163;-88
2023/10/17 08:21:33;;;;;;;10.10;7.35;;;14.10;88.10;;;;;;6185085;23;20020;-88
2023/10/17 08:24:00;;;;;;;11.00;7.13;;;14.20;88.00;;;;;;6185370;23;20456;-88
2023/10/17 08:26:29;;;;;;;9.15;6.97;;;14.30;87.60;;;;;;6185571;23;20452;-89
2023/10/17 08:29:00;;;;;;;11.18;7.38;;;14.30;87.30;;;;;;6186158;23;20025;-88
2023/10/17 08:31:44;;;;;;;5.85;5.25;;;14.30;87.20;;;;;;6185777;23;20047;-89
2023/10/17 08:34:14;;;;;;;9.80;6.75;;;14.40;87.10;;;;;;6185507;23;20589;-89
2023/10/17 08:36:49;;;;;;;7.88;5.72;;;14.40;86.90;;;;;;6163317;23;20020;-87
2023/10/17 08:42:00;;;;;;;8.00;6.45;;;14.50;86.70;;;;;;6188205;23;20464;-87
2023/10/17 08:44:29;;;;;;;6.50;5.15;;;14.60;86.40;;;;;;6188245;23;20024;-87
2023/10/17 08:46:58;;;;;;;6.32;4.72;;;14.70;86.20;;;;;;6187496;23;20013;-88
2023/10/17 08:49:27;;;;;;;8.82;5.28;;;14.80;86.10;;;;;;6187948;23;20020;-87
2023/10/17 08:51:56;;;;;;;10.00;5.68;;;14.80;86.00;;;;;;6188265;23;20092;-87
2023/10/17 08:54:28;;;;;;;7.45;4.43;;;14.90;85.70;;;;;;6188563;23;20020;-88
2023/10/17 08:56:54;;;;;;;6.20;4.32;;;15.00;85.00;;;;;;6188496;23;20020;-88
2023/10/17 09:02:15;;;;;;;9.95;6.20;;;15.10;84.40;;;;;;6188758;23;20028;-89
2023/10/17 09:04:44;;;;;;;7.32;4.60;;;15.20;84.20;;;;;;6189063;23;20587;-88
2023/10/17 09:07:22;;;;;;;6.70;4.10;;;15.30;84.00;;;;;;6188750;23;20441;-88
2023/10/17 09:09:54;;;;;;;6.07;3.47;;;15.40;83.90;;;;;;6189010;23;20062;-88
2023/10/17 09:12:24;;;;;;;7.13;3.38;;;15.40;83.50;;;;;;6188774;23;20016;-89
2023/10/17 09:14:52;;;;;;;7.20;3.92;;;15.40;83.30;;;;;;6188693;23;20032;-88
2023/10/17 09:17:28;;;;;;;9.55;4.07;;;15.50;83.20;;;;;;6188797;23;20048;-88
2023/10/17 09:19:56;;;;;;;5.40;3.75;;;15.60;82.90;;;;;;6163919;23;20020;-88
2023/10/17 09:22:23;;;;;;;7.35;3.42;;;15.70;82.60;;;;;;6188398;23;20020;-88
2023/10/17 09:24:49;;;;;;;6.13;3.20;;;15.70;82.20;;;;;;6188923;23;20456;-88
2023/10/17 09:27:18;;;;;;;5.10;2.78;;;15.80;82.10;;;;;;6188834;23;20463;-88
2023/10/17 09:29:59;;;;;;;5.43;3.00;;;15.80;82.00;;;;;;6188839;23;20017;-88
2023/10/17 09:32:36;;;;;;;5.55;3.10;;;15.80;81.80;;;;;;6188666;23;20016;-88
2023/10/17 09:35:15;;;;;;;6.30;2.90;;;15.90;81.30;;;;;;6188757;23;20027;-88
2023/10/17 09:37:44;;;;;;;4.75;2.08;;;15.90;80.80;;;;;;6188385;23;20091;-88
2023/10/17 09:40:12;;;;;;;4.03;2.35;;;16.00;80.60;;;;;;6188347;23;20123;-87
2023/10/17 09:42:45;;;;;;;4.15;2.28;;;16.00;80.60;;;;;;6188713;23;20021;-88
2023/10/17 09:45:15;;;;;;;5.82;2.83;;;16.00;80.70;;;;;;6188674;23;20020;-88
2023/10/17 09:47:46;;;;;;;4.22;2.13;;;16.10;80.40;;;;;;6187788;23;20020;-89
2023/10/17 09:50:17;;;;;;;6.40;2.53;;;16.20;80.40;;;;;;6186889;23;20013;-88
2023/10/17 09:52:45;;;;;;;3.58;2.58;;;16.30;80.00;;;;;;6186560;23;20015;-88
2023/10/17 09:55:16;;;;;;;7.68;4.93;;;16.40;79.90;;;;;;6162070;23;20052;-88
2023/10/17 09:57:50;;;;;;;3.42;2.30;;;16.50;79.90;;;;;;6187163;23;20020;-88
2023/10/17 10:00:25;;;;;;;6.38;2.80;;;16.60;78.80;;;;;;6162388;23;20021;-87
2023/10/17 10:02:52;;;;;;;4.40;2.08;;;16.70;78.90;;;;;;6162393;23;20060;-88
2023/10/17 10:05:24;;;;;;;3.50;1.83;;;16.80;78.50;;;;;;6162139;23;20108;-88
2023/10/17 10:07:53;;;;;;;2.17;1.33;;;16.80;78.10;;;;;;6190882;23;20412;-88
2023/10/17 10:10:41;;;;;;;4.55;1.60;;;16.80;78.10;;;;;;6191782;23;20075;-88
2023/10/17 10:13:12;;;;;;;4.32;1.40;;;16.90;78.40;;;;;;6164022;23;20095;-90
2023/10/17 10:15:52;;;;;;;4.70;3.42;;;17.10;77.50;;;;;;6187077;23;20063;-88
2023/10/17 10:18:42;;;;;;;6.15;2.58;;;17.00;77.30;;;;;;6186715;23;20017;-88
2023/10/17 10:21:08;;;;;;;2.97;1.67;;;17.00;77.00;;;;;;6186530;23;20082;-87
2023/10/17 10:23:42;;;;;;;3.78;1.63;;;17.10;76.80;;;;;;6188244;23;20024;-91
2023/10/17 10:26:19;;;;;;;;;;;17.10;76.80;;;;;;6188213;23;20530;-90
2023/10/17 10:28:47;;;;;;;4.32;1.60;;;17.40;77.40;;;;;;6162011;23;19916;-91
2023/10/17 10:31:21;;;;;;;3.95;1.60;;;17.40;76.20;;;;;;6186924;23;20024;-90
2023/10/17 10:33:51;;;;;;;3.63;1.73;;;17.30;76.00;;;;;;6161797;23;20016;-89
2023/10/17 10:36:18;;;;;;;4.40;1.98;;;17.40;75.90;;;;;;6162800;23;20023;-88
2023/10/17 10:38:44;;;;;;;4.47;2.15;;;17.40;75.70;;;;;;6161343;23;20103;-90
2023/10/17 10:41:13;;;;;;;3.13;1.70;;;17.40;76.00;;;;;;6186544;23;20024;-90
2023/10/17 10:43:40;;;;;;;2.85;1.70;;;17.60;75.70;;;;;;6161218;23;20027;-88
2023/10/17 10:46:07;;;;;;;4.63;1.88;;;17.60;75.60;;;;;;6186380;23;20024;-89
2023/10/17 10:48:33;;;;;;;4.47;1.52;;;17.70;75.20;;;;;;6161213;23;20120;-90
2023/10/17 10:51:00;;;;;;;2.78;1.40;;;17.70;74.80;;;;;;6162160;23;20344;-91
2023/10/17 10:53:29;;;;;;;2.20;1.48;;;17.80;74.60;;;;;;6186926;23;20056;-90
2023/10/17 10:56:02;;;;;;;3.25;1.42;;;17.80;74.20;;;;;;6186777;23;20511;-88
2023/10/17 10:58:42;;;;;;;2.85;1.40;;;17.90;74.10;;;;;;6161324;23;20051;-89
2023/10/17 11:01:07;;;;;;;4.47;1.90;;;17.90;73.30;;;;;;6186140;23;20031;-90
2023/10/17 11:03:40;;;;;;;3.10;1.38;;;18.00;73.40;;;;;;6186594;23;20016;-90
2023/10/17 11:06:08;;;;;;;3.33;1.67;;;17.90;74.40;;;;;;6161776;23;20019;-91
2023/10/17 11:08:45;;;;;;;2.40;1.48;;;18.10;73.80;;;;;;6162202;23;20016;-90
2023/10/17 11:11:13;;;;;;;68.47;59.95;;;18.10;73.80;;;;;;6187155;23;20017;-90
2023/10/17 11:13:48;;;;;;;7.18;5.30;;;18.30;73.50;;;;;;6161534;23;20031;-90
2023/10/17 11:16:24;;;;;;;9.75;3.20;;;18.30;73.00;;;;;;6162185;23;20031;-88
2023/10/17 11:18:51;;;;;;;3.45;1.90;;;18.30;72.70;;;;;;6161463;23;20009;-90
2023/10/17 11:21:22;;;;;;;3.08;1.95;;;18.40;72.40;;;;;;6161481;23;20095;-89
2023/10/17 11:23:59;;;;;;;4.97;2.05;;;18.40;72.30;;;;;;6161561;23;20076;-90
2023/10/17 11:26:29;;;;;;;2.95;1.90;;;18.40;72.40;;;;;;6161577;23;20063;-89
2023/10/17 11:28:56;;;;;;;3.72;1.58;;;18.40;72.10;;;;;;6186168;23;20040;-90
2023/10/17 11:31:24;;;;;;;3.47;2.08;;;18.60;72.40;;;;;;6186327;23;20013;-88
2023/10/17 11:33:55;;;;;;;4.57;1.90;;;18.60;72.20;;;;;;6161248;23;20062;-88
2023/10/17 11:36:22;;;;;;;3.13;2.20;;;18.60;71.60;;;;;;6186218;23;20502;-89
2023/10/17 11:39:04;;;;;;;4.28;2.08;;;18.50;71.70;;;;;;6185905;23;20071;-89
2023/10/17 11:41:31;;;;;;;7.63;2.38;;;18.50;71.80;;;;;;6161415;23;20048;-90
2023/10/17 11:44:07;;;;;;;3.22;2.10;;;18.60;71.60;;;;;;6186252;23;20017;-90
2023/10/17 11:46:34;;;;;;;3.60;1.90;;;18.60;71.60;;;;;;6161118;23;20103;-87
2023/10/17 11:49:26;;;;;;;3.22;2.35;;;18.70;71.10;;;;;;6185985;23;20023;-89
2023/10/17 11:52:00;;;;;;;3.95;1.95;;;18.60;70.80;;;;;;6161373;23;20017;-89
2023/10/17 11:54:29;;;;;;;4.03;2.17;;;18.60;70.80;;;;;;6161103;23;20026;-90
2023/10/17 11:56:55;;;;;;;3.50;2.10;;;18.70;71.10;;;;;;6160450;23;20009;-88
2023/10/17 11:59:21;;;;;;;4.90;2.15;;;18.90;71.10;;;;;;6185186;23;20022;-88
2023/10/17 12:01:52;;;;;;;5.22;2.10;;;18.90;70.30;;;;;;6185327;23;20028;-89
2023/10/17 12:04:18;;;;;;;4.07;2.13;;;18.90;70.20;;;;;;6160538;23;20017;-89
2023/10/17 12:06:46;;;;;;;4.35;2.33;;;19.00;70.30;;;;;;6185146;23;20020;-89
2023/10/17 12:09:23;;;;;;;5.55;2.60;;;19.10;70.20;;;;;;6185400;23;20491;-87
2023/10/17 12:11:54;;;;;;;4.45;1.95;;;19.10;70.00;;;;;;6160825;23;20047;-89
2023/10/17 12:14:21;;;;;;;2.67;2.03;;;19.00;70.10;;;;;;6160606;23;20074;-87
2023/10/17 12:16:53;;;;;;;4.03;2.00;;;19.10;69.60;;;;;;6185838;23;20017;-89
2023/10/17 12:19:22;;;;;;;5.88;2.00;;;19.10;69.50;;;;;;6160988;23;20131;-90
2023/10/17 12:21:53;;;;;;;4.00;1.80;;;19.30;69.90;;;;;;6159960;23;20016;-87
2023/10/17 12:24:20;;;;;;;7.25;3.30;;;19.40;69.80;;;;;;6184934;23;20024;-89
2023/10/17 12:26:47;;;;;;;4.55;2.10;;;19.40;69.60;;;;;;6185673;23;20047;-89
2023/10/17 12:29:13;;;;;;;5.35;2.58;;;19.50;69.30;;;;;;6185335;23;20028;-85
2023/10/17 12:31:39;;;;;;;3.03;2.00;;;19.50;68.60;;;;;;6185681;23;20016;-85
2023/10/17 12:34:07;;;;;;;4.53;1.90;;;19.50;68.90;;;;;;6185701;23;20020;-86
2023/10/17 12:36:35;;;;;;;4.15;1.70;;;19.60;68.80;;;;;;6161393;23;20099;-86
2023/10/17 12:39:02;;;;;;;3.97;1.85;;;19.70;68.20;;;;;;6160323;23;20023;-86
2023/10/17 12:41:29;;;;;;;3.00;1.80;;;19.70;68.60;;;;;;6185529;23;20024;-87
2023/10/17 12:43:54;;;;;;;3.47;1.88;;;19.80;68.60;;;;;;6185486;23;20024;-86
2023/10/17 12:46:20;;;;;;;3.15;1.92;;;19.80;68.40;;;;;;6185700;23;20016;-87
2023/10/17 12:48:46;;;;;;;5.72;2.20;;;19.80;68.20;;;;;;6160383;23;20095;-86
2023/10/17 12:51:12;;;;;;;5.60;2.00;;;19.90;68.20;;;;;;6185489;23;20479;-87
2023/10/17 12:53:40;;;;;;;2.88;1.75;;;19.80;67.50;;;;;;6185588;23;20024;-86
2023/10/17 12:56:10;;;;;;;3.72;1.85;;;19.80;67.40;;;;;;6185507;23;20449;-86
2023/10/17 12:58:36;;;;;;;3.58;1.70;;;19.80;67.70;;;;;;6185440;23;20020;-86
2023/10/17 13:01:05;;;;;;;4.22;1.67;;;19.80;67.80;;;;;;6185789;23;20357;-86
2023/10/17 13:03:37;;;;;;;3.00;1.75;;;19.90;67.80;;;;;;6185150;23;20096;-86
2023/10/17 13:06:08;;;;;;;3.50;1.85;;;19.90;67.50;;;;;;6185608;23;20122;-86
2023/10/17 13:08:35;;;;;;;3.10;1.92;;;20.00;67.70;;;;;;6160296;23;20635;-86
2023/10/17 13:11:02;;;;;;;5.18;1.85;;;20.00;67.40;;;;;;6185826;23;20389;-86
2023/10/17 13:13:32;;;;;;;2.35;1.27;;;19.90;67.50;;;;;;6185659;23;20027;-87
2023/10/17 13:15:59;;;;;;;3.60;1.85;;;19.90;66.30;;;;;;6185310;23;20092;-86
2023/10/17 13:18:25;;;;;;;3.08;1.73;;;19.90;66.40;;;;;;6185438;23;20460;-87
2023/10/17 13:20:54;;;;;;;4.68;1.85;;;19.90;66.40;;;;;;6185361;23;20096;-86
2023/10/17 13:23:20;;;;;;;2.92;1.63;;;19.90;66.20;;;;;;6186099;23;20027;-87
2023/10/17 13:25:49;;;;;;;5.05;1.73;;;19.90;66.20;;;;;;6187338;23;20016;-86
2023/10/17 13:28:16;;;;;;;3.80;1.75;;;19.80;66.50;;;;;;6187224;23;20024;-86
2023/10/17 13:30:42;;;;;;;3.15;1.60;;;19.80;66.40;;;;;;6187178;23;20021;-85
2023/10/17 13:33:07;;;;;;;4.07;1.67;;;19.90;66.20;;;;;;6187034;23;20016;-85
2023/10/17 13:35:37;;;;;;;2.75;1.80;;;20.00;66.70;;;;;;6187189;23;20013;-86
2023/10/17 13:38:03;;;;;;;7.28;3.40;;;20.00;66.90;;;;;;6161745;23;20020;-86
2023/10/17 13:40:32;;;;;;;11.10;4.22;;;20.10;66.70;;;;;;6187537;23;20055;-86
2023/10/17 13:43:00;;;;;;;4.00;1.88;;;20.10;66.90;;;;;;6187035;23;20035;-85
2023/10/17 13:45:27;;;;;;;9.15;2.95;;;20.10;67.10;;;;;;6186599;23;20344;-85
2023/10/17 13:47:53;;;;;;;77.75;24.38;;;20.10;66.90;;;;;;6187338;23;20973;-85
2023/10/17 13:50:19;;;;;;;20.88;7.28;;;20.00;68.20;;;;;;6162192;23;20048;-85
2023/10/17 13:52:49;;;;;;;4.35;1.63;;;19.90;68.40;;;;;;6187049;23;20012;-84
2023/10/17 13:55:27;;;;;;;15.55;4.22;;;19.80;68.20;;;;;;6186733;23;20023;-85
2023/10/17 13:58:04;;;;;;;107.28;34.95;;;19.80;68.40;;;;;;6186975;23;20013;-86
2023/10/17 14:00:51;;;;;;;20.80;6.38;;;19.80;70.20;;;;;;6162323;23;20019;-86
2023/10/17 14:03:17;;;;;;;5.47;2.03;;;19.70;70.80;;;;;;6186643;23;20017;-85
2023/10/17 14:05:47;;;;;;;3.50;1.55;;;19.70;69.60;;;;;;6187171;23;20488;-86
2023/10/17 14:08:17;;;;;;;2.97;1.60;;;19.60;68.50;;;;;;6186852;23;20059;-84
2023/10/17 14:10:43;;;;;;;6.45;1.63;;;19.60;68.90;;;;;;6161994;23;20017;-85
2023/10/17 14:13:12;;;;;;;2.83;1.83;;;19.60;68.50;;;;;;6162075;23;20021;-86
2023/10/17 14:15:38;;;;;;;4.45;1.55;;;19.50;68.30;;;;;;6186538;23;20066;-86
2023/10/17 14:18:13;;;;;;;4.43;1.67;;;19.50;68.70;;;;;;6161246;23;20016;-86
2023/10/17 14:23:29;;;;;;;3.90;1.23;;;19.60;68.90;;;;;;6186868;23;20052;-86
2023/10/17 14:26:09;;;;;;;5.80;1.55;;;19.60;68.90;;;;;;6186518;23;20020;-87
2023/10/17 14:28:36;;;;;;;4.25;1.83;;;19.60;68.90;;;;;;6162026;23;20024;-87
2023/10/17 14:31:05;;;;;;;87.90;78.40;;;19.70;68.20;;;;;;6161799;23;20948;-86
2023/10/17 14:33:32;;;;;;;4.55;3.30;;;19.60;68.40;;;;;;6186228;23;20020;-87
2023/10/17 14:36:05;;;;;;;2.78;1.90;;;19.60;68.30;;;;;;6186676;23;20059;-86
2023/10/17 14:38:34;;;;;;;4.60;1.80;;;19.50;68.60;;;;;;6161845;23;20467;-86
2023/10/17 14:41:00;;;;;;;2.50;1.70;;;19.60;68.20;;;;;;6186482;23;20025;-86
2023/10/17 14:43:26;;;;;;;2.85;1.40;;;19.50;68.40;;;;;;6161941;23;20059;-86
2023/10/17 14:45:53;;;;;;;2.22;1.40;;;19.50;68.60;;;;;;6161721;23;20470;-86
2023/10/17 14:48:20;;;;;;;3.00;1.60;;;19.40;68.40;;;;;;6186218;23;20027;-86
2023/10/17 14:50:46;;;;;;;4.75;1.77;;;19.40;68.50;;;;;;6161536;23;20460;-86
2023/10/17 14:53:11;;;;;;;4.45;1.63;;;19.30;68.40;;;;;;6185532;23;20460;-86
2023/10/17 14:55:38;;;;;;;3.30;1.55;;;19.20;68.00;;;;;;6186330;23;20040;-86
2023/10/17 14:58:06;;;;;;;5.15;1.77;;;19.10;67.80;;;;;;6186337;23;20025;-86
2023/10/17 15:00:34;;;;;;;3.03;1.70;;;19.00;68.20;;;;;;6185429;23;20099;-87
2023/10/17 15:02:59;;;;;;;3.20;1.70;;;18.80;68.70;;;;;;6185842;23;20506;-87